sensor_id;sensor_type;location;lat;lon;timestamp;pressure;altitude;pressure_sealevel;temperature;humidity
80202;BME280;69521;54.454;9.928;2023-05-07T00:00:37;102171.06;;;6.48;88.05
80202;BME280;69521;54.454;9.928;2023-05-07T00:03:02;102178.69;;;6.56;87.83
80202;BME280;69521;54.454;9.928;2023-05-07T00:05:28;102172.47;;;6.55;87.68
80202;BME280;69521;54.454;9.928;2023-05-07T00:07:53;102175.06;;;6.57;87.52
80202;BME280;69521;54.454;9.928;2023-05-07T00:10:19;102169.88;;;6.54;87.71
80202;BME280;69521;54.454;9.928;2023-05-07T00:12:44;102176.09;;;6.54;88.52
80202;BME280;69521;54.454;9.928;2023-05-07T00:15:10;102175.22;;;6.54;87.73
80202;BME280;69521;54.454;9.928;2023-05-07T00:17:36;102175.13;;;6.55;87.88
80202;BME280;69521;54.454;9.928;2023-05-07T00:20:03;102179.53;;;6.56;87.98
80202;BME280;69521;54.454;9.928;2023-05-07T00:22:29;102167.13;;;6.55;87.89
80202;BME280;69521;54.454;9.928;2023-05-07T00:24:55;102165.38;;;6.54;88.16
80202;BME280;69521;54.454;9.928;2023-05-07T00:27:21;102173.16;;;6.59;87.98
80202;BME280;69521;54.454;9.928;2023-05-07T00:29:46;102177.66;;;6.58;88.20
80202;BME280;69521;54.454;9.928;2023-05-07T00:32:12;102175.91;;;6.57;87.92
80202;BME280;69521;54.454;9.928;2023-05-07T00:34:37;102171.50;;;6.56;87.96
80202;BME280;69521;54.454;9.928;2023-05-07T00:37:04;102176.94;;;6.55;88.02
80202;BME280;69521;54.454;9.928;2023-05-07T00:39:30;102174.03;;;6.59;88.03
80202;BME280;69521;54.454;9.928;2023-05-07T00:41:55;102172.28;;;6.58;87.94
80202;BME280;69521;54.454;9.928;2023-05-07T00:44:21;102170.31;;;6.62;88.32
80202;BME280;69521;54.454;9.928;2023-05-07T00:46:46;102173.94;;;6.61;88.54
80202;BME280;69521;54.454;9.928;2023-05-07T00:49:15;102177.47;;;6.61;87.88
80202;BME280;69521;54.454;9.928;2023-05-07T00:51:40;102174.81;;;6.61;87.84
80202;BME280;69521;54.454;9.928;2023-05-07T00:54:06;102173.00;;;6.62;87.82
80202;BME280;69521;54.454;9.928;2023-05-07T00:56:33;102171.97;;;6.64;87.39
80202;BME280;69521;54.454;9.928;2023-05-07T00:58:58;102170.41;;;6.60;88.64
80202;BME280;69521;54.454;9.928;2023-05-07T01:01:24;102168.34;;;6.65;87.86
80202;BME280;69521;54.454;9.928;2023-05-07T01:03:49;102168.97;;;6.70;87.51
80202;BME280;69521;54.454;9.928;2023-05-07T01:06:15;102156.63;;;6.68;87.37
80202;BME280;69521;54.454;9.928;2023-05-07T01:08:42;102166.97;;;6.74;87.49
80202;BME280;69521;54.454;9.928;2023-05-07T01:11:08;102168.00;;;6.71;87.74
80202;BME280;69521;54.454;9.928;2023-05-07T01:13:35;102161.81;;;6.71;87.55
80202;BME280;69521;54.454;9.928;2023-05-07T01:16:02;102156.44;;;6.71;87.35
80202;BME280;69521;54.454;9.928;2023-05-07T01:18:28;102155.41;;;6.74;87.57
80202;BME280;69521;54.454;9.928;2023-05-07T01:20:58;102164.22;;;6.76;88.06
80202;BME280;69521;54.454;9.928;2023-05-07T01:23:24;102154.72;;;6.70;88.57
80202;BME280;69521;54.454;9.928;2023-05-07T01:25:53;102155.41;;;6.74;87.49
80202;BME280;69521;54.454;9.928;2023-05-07T01:28:19;102154.47;;;6.75;87.80
80202;BME280;69521;54.454;9.928;2023-05-07T01:30:48;102160.53;;;6.78;87.75
80202;BME280;69521;54.454;9.928;2023-05-07T01:33:15;102167.34;;;6.84;87.78
80202;BME280;69521;54.454;9.928;2023-05-07T01:35:47;102163.03;;;6.81;87.60
80202;BME280;69521;54.454;9.928;2023-05-07T01:38:13;102162.31;;;6.78;87.41
80202;BME280;69521;54.454;9.928;2023-05-07T01:40:38;102153.53;;;6.76;88.03
80202;BME280;69521;54.454;9.928;2023-05-07T01:43:04;102150.50;;;6.82;87.23
80202;BME280;69521;54.454;9.928;2023-05-07T01:45:31;102158.53;;;6.82;86.97
80202;BME280;69521;54.454;9.928;2023-05-07T01:47:58;102161.22;;;6.82;87.95
80202;BME280;69521;54.454;9.928;2023-05-07T01:50:25;102163.03;;;6.81;87.04
80202;BME280;69521;54.454;9.928;2023-05-07T01:52:51;102168.47;;;6.80;87.78
80202;BME280;69521;54.454;9.928;2023-05-07T01:55:16;102160.34;;;6.81;88.02
80202;BME280;69521;54.454;9.928;2023-05-07T01:57:41;102173.47;;;6.86;87.16
80202;BME280;69521;54.454;9.928;2023-05-07T02:00:08;102167.25;;;6.85;87.31
80202;BME280;69521;54.454;9.928;2023-05-07T02:02:34;102167.00;;;6.90;86.86
80202;BME280;69521;54.454;9.928;2023-05-07T02:05:00;102162.44;;;6.92;86.37
80202;BME280;69521;54.454;9.928;2023-05-07T02:07:26;102178.66;;;6.89;86.28
80202;BME280;69521;54.454;9.928;2023-05-07T02:09:51;102173.47;;;6.86;86.93
80202;BME280;69521;54.454;9.928;2023-05-07T02:12:17;102180.28;;;6.91;86.78
80202;BME280;69521;54.454;9.928;2023-05-07T02:14:42;102185.56;;;6.93;86.40
80202;BME280;69521;54.454;9.928;2023-05-07T02:17:07;102180.38;;;6.90;86.12
80202;BME280;69521;54.454;9.928;2023-05-07T02:19:33;102181.16;;;6.92;86.41
80202;BME280;69521;54.454;9.928;2023-05-07T02:21:58;102185.50;;;6.94;86.72
80202;BME280;69521;54.454;9.928;2023-05-07T02:24:23;102182.09;;;6.91;86.93
80202;BME280;69521;54.454;9.928;2023-05-07T02:26:49;102193.66;;;6.91;86.98
80202;BME280;69521;54.454;9.928;2023-05-07T02:29:14;102187.47;;;6.91;86.36
80202;BME280;69521;54.454;9.928;2023-05-07T02:31:40;102195.41;;;6.92;86.67
80202;BME280;69521;54.454;9.928;2023-05-07T02:34:05;102197.78;;;6.98;86.09
80202;BME280;69521;54.454;9.928;2023-05-07T02:36:30;102185.44;;;6.96;85.11
80202;BME280;69521;54.454;9.928;2023-05-07T02:38:56;102192.50;;;6.97;85.90
80202;BME280;69521;54.454;9.928;2023-05-07T02:41:21;102187.06;;;6.98;84.71
80202;BME280;69521;54.454;9.928;2023-05-07T02:43:46;102186.28;;;6.96;85.00
80202;BME280;69521;54.454;9.928;2023-05-07T02:46:12;102194.22;;;6.98;84.95
80202;BME280;69521;54.454;9.928;2023-05-07T02:48:37;102195.19;;;6.97;85.00
80202;BME280;69521;54.454;9.928;2023-05-07T02:51:03;102194.31;;;6.96;85.15
80202;BME280;69521;54.454;9.928;2023-05-07T02:53:30;102200.69;;;6.94;85.86
80202;BME280;69521;54.454;9.928;2023-05-07T02:55:57;102198.94;;;6.93;85.97
80202;BME280;69521;54.454;9.928;2023-05-07T02:58:23;102197.06;;;6.95;85.55
80202;BME280;69521;54.454;9.928;2023-05-07T03:00:49;102197.06;;;6.95;85.67
80202;BME280;69521;54.454;9.928;2023-05-07T03:03:14;102188.72;;;7.01;85.45
80202;BME280;69521;54.454;9.928;2023-05-07T03:05:40;102191.56;;;6.98;85.01
80202;BME280;69521;54.454;9.928;2023-05-07T03:08:05;102195.00;;;7.00;84.37
80202;BME280;69521;54.454;9.928;2023-05-07T03:10:31;102186.13;;;6.99;84.14
80202;BME280;69521;54.454;9.928;2023-05-07T03:12:56;102179.72;;;7.02;84.53
80202;BME280;69521;54.454;9.928;2023-05-07T03:15:21;102185.78;;;7.06;84.77
80202;BME280;69521;54.454;9.928;2023-05-07T03:17:47;102183.34;;;7.01;84.50
80202;BME280;69521;54.454;9.928;2023-05-07T03:20:13;102189.41;;;7.05;84.74
80202;BME280;69521;54.454;9.928;2023-05-07T03:22:39;102176.28;;;7.00;84.69
80202;BME280;69521;54.454;9.928;2023-05-07T03:25:05;102176.44;;;6.97;85.22
80202;BME280;69521;54.454;9.928;2023-05-07T03:27:30;102181.53;;;7.01;84.25
80202;BME280;69521;54.454;9.928;2023-05-07T03:29:55;102188.44;;;7.06;84.03
80202;BME280;69521;54.454;9.928;2023-05-07T03:32:21;102190.34;;;7.03;83.47
80202;BME280;69521;54.454;9.928;2023-05-07T03:34:46;102193.97;;;7.02;84.57
80202;BME280;69521;54.454;9.928;2023-05-07T03:37:11;102194.84;;;7.03;84.09
80202;BME280;69521;54.454;9.928;2023-05-07T03:39:37;102197.34;;;7.06;84.40
80202;BME280;69521;54.454;9.928;2023-05-07T03:42:02;102188.72;;;7.01;84.71
80202;BME280;69521;54.454;9.928;2023-05-07T03:44:28;102200.34;;;7.00;84.67
80202;BME280;69521;54.454;9.928;2023-05-07T03:46:53;102191.22;;;7.04;85.02
80202;BME280;69521;54.454;9.928;2023-05-07T03:49:19;102194.66;;;7.06;84.28
80202;BME280;69521;54.454;9.928;2023-05-07T03:51:44;102200.19;;;7.03;83.61
80202;BME280;69521;54.454;9.928;2023-05-07T03:54:10;102195.69;;;7.03;83.71
80202;BME280;69521;54.454;9.928;2023-05-07T03:56:35;102195.88;;;7.00;84.12
80202;BME280;69521;54.454;9.928;2023-05-07T03:59:01;102200.28;;;7.01;84.35
80202;BME280;69521;54.454;9.928;2023-05-07T04:01:26;102192.06;;;7.05;84.25
80202;BME280;69521;54.454;9.928;2023-05-07T04:03:52;102192.06;;;7.05;83.79
80202;BME280;69521;54.454;9.928;2023-05-07T04:06:17;102200.09;;;7.05;83.85
80202;BME280;69521;54.454;9.928;2023-05-07T04:08:43;102204.16;;;7.12;84.45
80202;BME280;69521;54.454;9.928;2023-05-07T04:11:08;102205.28;;;7.08;83.52
80202;BME280;69521;54.454;9.928;2023-05-07T04:13:34;102197.09;;;7.11;83.58
80202;BME280;69521;54.454;9.928;2023-05-07T04:16:01;102200.47;;;7.14;83.17
80202;BME280;69521;54.454;9.928;2023-05-07T04:18:27;102198.72;;;7.13;82.02
80202;BME280;69521;54.454;9.928;2023-05-07T04:20:52;102205.91;;;7.13;82.56
80202;BME280;69521;54.454;9.928;2023-05-07T04:23:18;102198.72;;;7.13;81.90
80202;BME280;69521;54.454;9.928;2023-05-07T04:25:43;102201.06;;;7.19;82.29
80202;BME280;69521;54.454;9.928;2023-05-07T04:28:08;102211.06;;;7.16;82.50
80202;BME280;69521;54.454;9.928;2023-05-07T04:30:34;102206.50;;;7.18;82.36
80202;BME280;69521;54.454;9.928;2023-05-07T04:32:59;102205.63;;;7.17;82.94
80202;BME280;69521;54.454;9.928;2023-05-07T04:35:24;102222.56;;;7.18;82.99
80202;BME280;69521;54.454;9.928;2023-05-07T04:37:50;102222.47;;;7.19;82.96
80202;BME280;69521;54.454;9.928;2023-05-07T04:40:15;102225.94;;;7.21;83.01
80202;BME280;69521;54.454;9.928;2023-05-07T04:42:41;102226.63;;;7.25;82.75
80202;BME280;69521;54.454;9.928;2023-05-07T04:45:06;102238.09;;;7.27;82.48
80202;BME280;69521;54.454;9.928;2023-05-07T04:47:32;102228.25;;;7.27;82.66
80202;BME280;69521;54.454;9.928;2023-05-07T04:49:57;102236.38;;;7.26;83.40
80202;BME280;69521;54.454;9.928;2023-05-07T04:52:23;102236.38;;;7.26;82.93
80202;BME280;69521;54.454;9.928;2023-05-07T04:54:48;102231.97;;;7.25;83.91
80202;BME280;69521;54.454;9.928;2023-05-07T04:57:13;102237.31;;;7.25;83.69
80202;BME280;69521;54.454;9.928;2023-05-07T04:59:39;102240.09;;;7.23;84.14
80202;BME280;69521;54.454;9.928;2023-05-07T05:02:05;102227.56;;;7.24;84.25
80202;BME280;69521;54.454;9.928;2023-05-07T05:04:30;102239.31;;;7.21;84.04
80202;BME280;69521;54.454;9.928;2023-05-07T05:06:56;102239.13;;;7.24;84.25
80202;BME280;69521;54.454;9.928;2023-05-07T05:09:21;102231.88;;;7.26;83.88
80202;BME280;69521;54.454;9.928;2023-05-07T05:11:47;102228.97;;;7.31;83.70
80202;BME280;69521;54.454;9.928;2023-05-07T05:14:12;102238.03;;;7.28;84.50
80202;BME280;69521;54.454;9.928;2023-05-07T05:16:37;102230.59;;;7.33;84.01
80202;BME280;69521;54.454;9.928;2023-05-07T05:19:03;102239.75;;;7.29;84.23
80202;BME280;69521;54.454;9.928;2023-05-07T05:21:28;102240.63;;;7.30;83.52
80202;BME280;69521;54.454;9.928;2023-05-07T05:23:53;102243.19;;;7.31;83.83
80202;BME280;69521;54.454;9.928;2023-05-07T05:26:19;102244.06;;;7.32;83.66
80202;BME280;69521;54.454;9.928;2023-05-07T05:28:46;102246.66;;;7.33;83.69
80202;BME280;69521;54.454;9.928;2023-05-07T05:31:11;102246.31;;;7.40;83.04
80202;BME280;69521;54.454;9.928;2023-05-07T05:33:36;102246.31;;;7.40;83.76
80202;BME280;69521;54.454;9.928;2023-05-07T05:36:02;102250.38;;;7.47;83.66
80202;BME280;69521;54.454;9.928;2023-05-07T05:38:27;102257.63;;;7.45;83.40
80202;BME280;69521;54.454;9.928;2023-05-07T05:40:53;102259.63;;;7.41;83.34
80202;BME280;69521;54.454;9.928;2023-05-07T05:43:18;102265.66;;;7.45;82.89
80202;BME280;69521;54.454;9.928;2023-05-07T05:45:43;102261.34;;;7.42;82.83
80202;BME280;69521;54.454;9.928;2023-05-07T05:48:09;102263.84;;;7.45;83.01
80202;BME280;69521;54.454;9.928;2023-05-07T05:50:34;102258.59;;;7.44;82.56
80202;BME280;69521;54.454;9.928;2023-05-07T05:53:02;102259.97;;;7.51;82.93
80202;BME280;69521;54.454;9.928;2023-05-07T05:55:28;102256.25;;;7.53;82.72
80202;BME280;69521;54.454;9.928;2023-05-07T05:57:53;102250.81;;;7.55;82.65
80202;BME280;69521;54.454;9.928;2023-05-07T06:00:19;102263.16;;;7.57;82.56
80202;BME280;69521;54.454;9.928;2023-05-07T06:02:47;102253.66;;;7.52;82.24
80202;BME280;69521;54.454;9.928;2023-05-07T06:05:12;102258.75;;;7.56;82.95
80202;BME280;69521;54.454;9.928;2023-05-07T06:07:37;102270.31;;;7.57;83.33
80202;BME280;69521;54.454;9.928;2023-05-07T06:10:03;102261.34;;;7.58;83.51
80202;BME280;69521;54.454;9.928;2023-05-07T06:12:28;102266.53;;;7.61;82.89
80202;BME280;69521;54.454;9.928;2023-05-07T06:14:54;102267.13;;;7.66;82.96
80202;BME280;69521;54.454;9.928;2023-05-07T06:17:19;102263.50;;;7.67;82.62
80202;BME280;69521;54.454;9.928;2023-05-07T06:19:45;102265.13;;;7.70;81.81
80202;BME280;69521;54.454;9.928;2023-05-07T06:22:10;102265.25;;;7.84;82.77
80202;BME280;69521;54.454;9.928;2023-05-07T06:24:36;102265.25;;;7.84;82.07
80202;BME280;69521;54.454;9.928;2023-05-07T06:27:01;102268.06;;;7.96;81.41
80202;BME280;69521;54.454;9.928;2023-05-07T06:29:26;102270.56;;;7.99;81.85
80202;BME280;69521;54.454;9.928;2023-05-07T06:31:55;102270.84;;;7.95;80.85
80202;BME280;69521;54.454;9.928;2023-05-07T06:34:20;102274.38;;;7.95;81.22
80202;BME280;69521;54.454;9.928;2023-05-07T06:36:46;102278.44;;;8.03;80.88
80202;BME280;69521;54.454;9.928;2023-05-07T06:39:11;102274.81;;;8.04;81.36
80202;BME280;69521;54.454;9.928;2023-05-07T06:41:37;102271.94;;;8.07;80.84
80202;BME280;69521;54.454;9.928;2023-05-07T06:44:02;102267.34;;;8.09;80.99
80202;BME280;69521;54.454;9.928;2023-05-07T06:46:28;102276.84;;;8.14;81.72
80202;BME280;69521;54.454;9.928;2023-05-07T06:48:54;102270.63;;;8.14;80.50
80202;BME280;69521;54.454;9.928;2023-05-07T06:51:20;102278.50;;;8.17;80.65
80202;BME280;69521;54.454;9.928;2023-05-07T06:53:45;102263.00;;;8.22;80.35
80202;BME280;69521;54.454;9.928;2023-05-07T06:56:10;102264.19;;;8.32;80.64
80202;BME280;69521;54.454;9.928;2023-05-07T06:58:36;102266.94;;;8.30;81.46
80202;BME280;69521;54.454;9.928;2023-05-07T07:01:02;102271.53;;;8.44;81.31
80202;BME280;69521;54.454;9.928;2023-05-07T07:03:27;102275.75;;;8.48;80.38
80202;BME280;69521;54.454;9.928;2023-05-07T07:05:53;102272.88;;;8.51;79.23
80202;BME280;69521;54.454;9.928;2023-05-07T07:08:19;102273.47;;;8.56;80.16
80202;BME280;69521;54.454;9.928;2023-05-07T07:10:46;102267.72;;;8.62;79.82
80202;BME280;69521;54.454;9.928;2023-05-07T07:13:11;102274.28;;;8.73;80.67
80202;BME280;69521;54.454;9.928;2023-05-07T07:15:37;102264.47;;;8.57;78.58
80202;BME280;69521;54.454;9.928;2023-05-07T07:18:02;102273.47;;;8.56;78.50
80202;BME280;69521;54.454;9.928;2023-05-07T07:20:27;102269.66;;;8.60;79.30
80202;BME280;69521;54.454;9.928;2023-05-07T07:22:53;102280.19;;;8.63;78.97
80202;BME280;69521;54.454;9.928;2023-05-07T07:25:18;102282.25;;;8.74;78.27
80202;BME280;69521;54.454;9.928;2023-05-07T07:27:43;102277.56;;;8.78;78.02
80202;BME280;69521;54.454;9.928;2023-05-07T07:30:09;102271.44;;;8.90;77.76
80202;BME280;69521;54.454;9.928;2023-05-07T07:32:34;102278.50;;;8.77;76.15
80202;BME280;69521;54.454;9.928;2023-05-07T07:35:00;102272.00;;;8.81;77.36
80202;BME280;69521;54.454;9.928;2023-05-07T07:37:25;102276.59;;;8.93;76.89
80202;BME280;69521;54.454;9.928;2023-05-07T07:39:51;102266.66;;;8.95;75.90
80202;BME280;69521;54.454;9.928;2023-05-07T07:42:16;102278.53;;;9.05;75.46
80202;BME280;69521;54.454;9.928;2023-05-07T07:44:41;102278.53;;;9.05;75.78
80202;BME280;69521;54.454;9.928;2023-05-07T07:47:07;102273.34;;;9.02;74.76
80202;BME280;69521;54.454;9.928;2023-05-07T07:49:32;102282.94;;;9.06;75.17
80202;BME280;69521;54.454;9.928;2023-05-07T07:51:57;102289.47;;;9.16;75.64
80202;BME280;69521;54.454;9.928;2023-05-07T07:54:24;102282.94;;;9.35;77.68
80202;BME280;69521;54.454;9.928;2023-05-07T07:56:49;102289.91;;;9.51;75.91
80202;BME280;69521;54.454;9.928;2023-05-07T07:59:15;102280.22;;;9.63;74.73
80202;BME280;69521;54.454;9.928;2023-05-07T08:01:44;102280.41;;;9.60;74.61
80202;BME280;69521;54.454;9.928;2023-05-07T08:04:09;102277.91;;;9.71;77.30
80202;BME280;69521;54.454;9.928;2023-05-07T08:06:35;102280.59;;;9.71;74.54
80202;BME280;69521;54.454;9.928;2023-05-07T08:09:00;102275.38;;;9.82;73.18
80202;BME280;69521;54.454;9.928;2023-05-07T08:11:26;102272.53;;;10.25;73.73
80202;BME280;69521;54.454;9.928;2023-05-07T08:13:51;102263.69;;;10.63;73.54
80202;BME280;69521;54.454;9.928;2023-05-07T08:16:17;102269.31;;;10.72;70.23
80202;BME280;69521;54.454;9.928;2023-05-07T08:18:42;102271.56;;;10.66;72.44
80202;BME280;69521;54.454;9.928;2023-05-07T08:21:08;102262.41;;;10.81;71.75
80202;BME280;69521;54.454;9.928;2023-05-07T08:23:33;102277.50;;;10.96;70.16
80202;BME280;69521;54.454;9.928;2023-05-07T08:26:00;102267.34;;;11.25;72.25
80202;BME280;69521;54.454;9.928;2023-05-07T08:28:25;102261.00;;;11.13;69.88
80202;BME280;69521;54.454;9.928;2023-05-07T08:30:50;102273.16;;;11.19;70.98
80202;BME280;69521;54.454;9.928;2023-05-07T08:33:16;102267.88;;;11.43;71.59
80202;BME280;69521;54.454;9.928;2023-05-07T08:35:41;102263.25;;;11.07;69.13
80202;BME280;69521;54.454;9.928;2023-05-07T08:38:07;102266.28;;;11.15;68.63
80202;BME280;69521;54.454;9.928;2023-05-07T08:40:36;102279.53;;;11.18;69.25
80202;BME280;69521;54.454;9.928;2023-05-07T08:43:02;102271.44;;;11.05;69.77
80202;BME280;69521;54.454;9.928;2023-05-07T08:45:30;102282.75;;;11.10;69.80
80202;BME280;69521;54.454;9.928;2023-05-07T08:48:09;102284.69;;;11.08;69.55
80202;BME280;69521;54.454;9.928;2023-05-07T08:50:36;102282.22;;;11.31;68.99
80202;BME280;69521;54.454;9.928;2023-05-07T08:53:03;102272.59;;;11.27;66.67
80202;BME280;69521;54.454;9.928;2023-05-07T08:55:28;102277.41;;;11.60;68.68
80202;BME280;69521;54.454;9.928;2023-05-07T08:57:55;102273.81;;;11.35;69.23
80202;BME280;69521;54.454;9.928;2023-05-07T09:00:20;102275.34;;;11.01;68.72
80202;BME280;69521;54.454;9.928;2023-05-07T09:02:46;102282.00;;;11.34;68.74
80202;BME280;69521;54.454;9.928;2023-05-07T09:05:11;102286.19;;;12.11;67.51
80202;BME280;69521;54.454;9.928;2023-05-07T09:07:36;102283.97;;;12.05;65.12
80202;BME280;69521;54.454;9.928;2023-05-07T09:10:03;102287.50;;;11.82;66.24
80202;BME280;69521;54.454;9.928;2023-05-07T09:12:29;102297.84;;;11.75;67.92
80202;BME280;69521;54.454;9.928;2023-05-07T09:14:55;102301.88;;;11.69;67.42
80202;BME280;69521;54.454;9.928;2023-05-07T09:17:20;102298.13;;;11.59;67.52
80202;BME280;69521;54.454;9.928;2023-05-07T09:19:45;102307.81;;;11.62;70.30
80202;BME280;69521;54.454;9.928;2023-05-07T09:22:11;102301.91;;;11.44;67.67
80202;BME280;69521;54.454;9.928;2023-05-07T09:24:37;102311.16;;;11.65;68.62
80202;BME280;69521;54.454;9.928;2023-05-07T09:27:07;102316.53;;;11.65;66.52
80202;BME280;69521;54.454;9.928;2023-05-07T09:29:33;102305.47;;;11.94;65.82
80202;BME280;69521;54.454;9.928;2023-05-07T09:32:03;102304.22;;;12.10;65.52
80202;BME280;69521;54.454;9.928;2023-05-07T09:34:30;102308.06;;;11.46;64.64
80202;BME280;69521;54.454;9.928;2023-05-07T09:36:55;102302.72;;;11.70;67.96
80202;BME280;69521;54.454;9.928;2023-05-07T09:39:22;102314.53;;;11.43;65.42
80202;BME280;69521;54.454;9.928;2023-05-07T09:41:48;102309.16;;;11.31;64.54
80202;BME280;69521;54.454;9.928;2023-05-07T09:44:20;102320.38;;;11.37;67.95
80202;BME280;69521;54.454;9.928;2023-05-07T09:46:53;102310.75;;;11.46;66.39
80202;BME280;69521;54.454;9.928;2023-05-07T09:49:22;102318.19;;;11.55;67.72
80202;BME280;69521;54.454;9.928;2023-05-07T09:51:48;102317.22;;;11.56;68.57
80202;BME280;69521;54.454;9.928;2023-05-07T09:54:15;102318.28;;;11.54;67.52
80202;BME280;69521;54.454;9.928;2023-05-07T09:56:40;102314.34;;;11.83;67.18
80202;BME280;69521;54.454;9.928;2023-05-07T09:59:10;102306.66;;;12.26;64.09
80202;BME280;69521;54.454;9.928;2023-05-07T10:01:38;102302.59;;;12.08;66.07
80202;BME280;69521;54.454;9.928;2023-05-07T10:04:05;102313.69;;;11.92;64.98
80202;BME280;69521;54.454;9.928;2023-05-07T10:06:34;102295.03;;;11.89;65.42
80202;BME280;69521;54.454;9.928;2023-05-07T10:09:00;102303.75;;;11.93;65.65
80202;BME280;69521;54.454;9.928;2023-05-07T10:11:26;102304.06;;;12.60;67.48
80202;BME280;69521;54.454;9.928;2023-05-07T10:13:52;102301.91;;;12.76;64.32
80202;BME280;69521;54.454;9.928;2023-05-07T10:16:18;102299.44;;;12.73;65.79
80202;BME280;69521;54.454;9.928;2023-05-07T10:18:44;102300.50;;;13.05;64.17
80202;BME280;69521;54.454;9.928;2023-05-07T10:21:21;102295.94;;;12.95;64.12
80202;BME280;69521;54.454;9.928;2023-05-07T10:23:57;102292.19;;;13.53;62.52
80202;BME280;69521;54.454;9.928;2023-05-07T10:26:24;102300.75;;;13.92;62.71
80202;BME280;69521;54.454;9.928;2023-05-07T10:28:55;102288.09;;;14.24;60.98
80202;BME280;69521;54.454;9.928;2023-05-07T10:33:58;102292.13;;;13.87;61.35
80202;BME280;69521;54.454;9.928;2023-05-07T10:36:25;102282.53;;;14.05;59.67
80202;BME280;69521;54.454;9.928;2023-05-07T10:38:51;102292.88;;;14.00;60.27
80202;BME280;69521;54.454;9.928;2023-05-07T10:41:17;102290.09;;;13.57;60.03
80202;BME280;69521;54.454;9.928;2023-05-07T10:43:45;102291.09;;;13.56;63.35
80202;BME280;69521;54.454;9.928;2023-05-07T10:46:11;102292.34;;;14.06;61.64
80202;BME280;69521;54.454;9.928;2023-05-07T10:51:28;102294.59;;;14.86;63.10
80202;BME280;69521;54.454;9.928;2023-05-07T10:56:43;102299.97;;;14.76;61.45
80202;BME280;69521;54.454;9.928;2023-05-07T11:02:02;102286.91;;;14.49;55.97
80202;BME280;69521;54.454;9.928;2023-05-07T11:04:29;102288.19;;;14.02;59.70
80202;BME280;69521;54.454;9.928;2023-05-07T11:15:34;102285.00;;;14.61;56.15
80202;BME280;69521;54.454;9.928;2023-05-07T11:18:00;102276.97;;;14.39;58.98
80202;BME280;69521;54.454;9.928;2023-05-07T11:20:50;102280.13;;;14.96;56.04
80202;BME280;69521;54.454;9.928;2023-05-07T11:26:04;102285.50;;;13.80;59.91
80202;BME280;69521;54.454;9.928;2023-05-07T11:28:31;102290.63;;;14.05;60.85
80202;BME280;69521;54.454;9.928;2023-05-07T11:30:57;102285.91;;;14.50;60.24
80202;BME280;69521;54.454;9.928;2023-05-07T11:33:23;102294.44;;;14.46;62.45
80202;BME280;69521;54.454;9.928;2023-05-07T11:35:53;102293.59;;;14.34;59.07
80202;BME280;69521;54.454;9.928;2023-05-07T11:38:19;102282.03;;;14.43;58.30
80202;BME280;69521;54.454;9.928;2023-05-07T11:40:51;102279.94;;;14.88;55.01
80202;BME280;69521;54.454;9.928;2023-05-07T11:43:17;102289.47;;;15.74;57.44
80202;BME280;69521;54.454;9.928;2023-05-07T11:45:43;102282.81;;;15.98;55.62
80202;BME280;69521;54.454;9.928;2023-05-07T11:48:09;102292.25;;;16.22;56.67
80202;BME280;69521;54.454;9.928;2023-05-07T11:50:34;102281.56;;;16.79;59.36
80202;BME280;69521;54.454;9.928;2023-05-07T11:53:00;102284.97;;;17.37;54.98
80202;BME280;69521;54.454;9.928;2023-05-07T11:55:25;102276.22;;;17.43;56.50
80202;BME280;69521;54.454;9.928;2023-05-07T11:57:51;102279.41;;;16.63;54.64
80202;BME280;69521;54.454;9.928;2023-05-07T12:00:17;102273.97;;;16.82;57.06
80202;BME280;69521;54.454;9.928;2023-05-07T12:02:45;102274.56;;;16.76;56.74
80202;BME280;69521;54.454;9.928;2023-05-07T12:05:10;102271.97;;;16.84;55.73
80202;BME280;69521;54.454;9.928;2023-05-07T12:07:36;102267.34;;;16.95;53.03
80202;BME280;69521;54.454;9.928;2023-05-07T12:10:05;102276.41;;;16.08;56.22
80202;BME280;69521;54.454;9.928;2023-05-07T12:12:45;102287.47;;;15.76;58.10
80202;BME280;69521;54.454;9.928;2023-05-07T12:15:10;102283.19;;;15.43;57.26
80202;BME280;69521;54.454;9.928;2023-05-07T12:17:36;102277.34;;;15.78;59.35
80202;BME280;69521;54.454;9.928;2023-05-07T12:20:02;102277.06;;;15.72;56.42
80202;BME280;69521;54.454;9.928;2023-05-07T12:22:28;102282.25;;;15.94;57.89
80202;BME280;69521;54.454;9.928;2023-05-07T12:24:57;102274.78;;;15.77;56.08
80202;BME280;69521;54.454;9.928;2023-05-07T12:27:23;102280.38;;;16.04;57.39
80202;BME280;69521;54.454;9.928;2023-05-07T12:29:50;102268.81;;;16.21;57.09
80202;BME280;69521;54.454;9.928;2023-05-07T12:32:20;102281.66;;;15.81;56.55
80202;BME280;69521;54.454;9.928;2023-05-07T12:34:47;102286.22;;;15.90;59.04
80202;BME280;69521;54.454;9.928;2023-05-07T12:37:14;102282.78;;;15.88;58.19
80202;BME280;69521;54.454;9.928;2023-05-07T12:40:02;102282.25;;;15.94;58.72
80202;BME280;69521;54.454;9.928;2023-05-07T12:42:33;102286.09;;;15.91;57.67
80202;BME280;69521;54.454;9.928;2023-05-07T12:45:00;102291.25;;;16.14;56.15
80202;BME280;69521;54.454;9.928;2023-05-07T12:47:32;102282.41;;;16.41;56.39
80202;BME280;69521;54.454;9.928;2023-05-07T12:49:59;102277.28;;;16.67;56.98
80202;BME280;69521;54.454;9.928;2023-05-07T12:52:24;102285.13;;;16.31;57.12
80202;BME280;69521;54.454;9.928;2023-05-07T12:54:50;102281.13;;;16.45;55.76
80202;BME280;69521;54.454;9.928;2023-05-07T12:57:19;102286.22;;;15.90;56.21
80202;BME280;69521;54.454;9.928;2023-05-07T12:59:44;102284.53;;;15.99;55.59
80202;BME280;69521;54.454;9.928;2023-05-07T13:02:10;102296.72;;;15.64;57.50
80202;BME280;69521;54.454;9.928;2023-05-07T13:04:35;102293.22;;;15.52;57.64
80202;BME280;69521;54.454;9.928;2023-05-07T13:07:01;102302.41;;;15.30;56.89
80202;BME280;69521;54.454;9.928;2023-05-07T13:09:27;102293.75;;;15.46;58.20
80202;BME280;69521;54.454;9.928;2023-05-07T13:11:54;102281.69;;;15.60;57.01
80202;BME280;69521;54.454;9.928;2023-05-07T13:14:19;102286.16;;;15.61;56.99